sensor_id;sensor_type;location;lat;lon;timestamp;pressure;altitude;pressure_sealevel;temperature;humidity
17060;BME280;8646;49.716;9.266;2023-03-04T00:02:04;101053.25;;;0.69;82.08
17060;BME280;8646;49.716;9.266;2023-03-04T00:05:07;101056.81;;;0.68;82.37
17060;BME280;8646;49.716;9.266;2023-03-04T00:08:10;101056.78;;;0.66;82.31
17060;BME280;8646;49.716;9.266;2023-03-04T00:11:13;101057.66;;;0.62;82.48
17060;BME280;8646;49.716;9.266;2023-03-04T00:14:15;101037.16;;;0.55;82.20
17060;BME280;8646;49.716;9.266;2023-03-04T00:17:19;101036.25;;;0.53;82.55
17060;BME280;8646;49.716;9.266;2023-03-04T00:20:23;101051.38;;;0.56;82.46
17060;BME280;8646;49.716;9.266;2023-03-04T00:23:25;101054.03;;;0.54;82.68
17060;BME280;8646;49.716;9.266;2023-03-04T00:26:28;101053.09;;;0.52;82.69
17060;BME280;8646;49.716;9.266;2023-03-04T00:29:31;101061.09;;;0.52;82.69
17060;BME280;8646;49.716;9.266;2023-03-04T00:32:35;101058.41;;;0.48;82.88
17060;BME280;8646;49.716;9.266;2023-03-04T00:35:39;101058.38;;;0.45;82.74
17060;BME280;8646;49.716;9.266;2023-03-04T00:38:42;101051.25;;;0.41;82.83
17060;BME280;8646;49.716;9.266;2023-03-04T00:41:45;101071.63;;;0.42;83.40
17060;BME280;8646;49.716;9.266;2023-03-04T00:44:47;101068.97;;;0.38;83.18
17060;BME280;8646;49.716;9.266;2023-03-04T00:47:53;101064.50;;;0.36;83.27
17060;BME280;8646;49.716;9.266;2023-03-04T00:50:55;101068.91;;;0.32;83.37
17060;BME280;8646;49.716;9.266;2023-03-04T00:53:58;101060.00;;;0.30;83.23
17060;BME280;8646;49.716;9.266;2023-03-04T00:57:01;101058.19;;;0.28;83.35
17060;BME280;8646;49.716;9.266;2023-03-04T01:00:05;101063.47;;;0.23;83.70
17060;BME280;8646;49.716;9.266;2023-03-04T01:03:09;101058.16;;;0.23;83.64
17060;BME280;8646;49.716;9.266;2023-03-04T01:06:13;101063.44;;;0.20;83.64
17060;BME280;8646;49.716;9.266;2023-03-04T01:09:16;101062.53;;;0.18;83.57
17060;BME280;8646;49.716;9.266;2023-03-04T01:12:18;101065.19;;;0.18;83.56
17060;BME280;8646;49.716;9.266;2023-03-04T01:15:21;101059.84;;;0.15;83.65
17060;BME280;8646;49.716;9.266;2023-03-04T01:18:26;101068.75;;;0.20;83.57
17060;BME280;8646;49.716;9.266;2023-03-04T01:21:28;101067.03;;;0.25;83.96
17060;BME280;8646;49.716;9.266;2023-03-04T01:24:31;101068.09;;;0.40;84.02
17060;BME280;8646;49.716;9.266;2023-03-04T01:27:34;101069.16;;;0.60;84.29
17060;BME280;8646;49.716;9.266;2023-03-04T01:30:37;101054.13;;;0.68;84.66
17060;BME280;8646;49.716;9.266;2023-03-04T01:33:41;101054.25;;;0.79;84.83
17060;BME280;8646;49.716;9.266;2023-03-04T01:36:44;101042.81;;;0.93;84.41
17060;BME280;8646;49.716;9.266;2023-03-04T01:39:46;101040.22;;;1.07;84.27
17060;BME280;8646;49.716;9.266;2023-03-04T01:42:49;101034.09;;;1.19;83.70
17060;BME280;8646;49.716;9.266;2023-03-04T01:45:53;101030.59;;;1.27;83.36
17060;BME280;8646;49.716;9.266;2023-03-04T01:48:58;101032.41;;;1.33;83.83
17060;BME280;8646;49.716;9.266;2023-03-04T01:52:03;101012.84;;;1.31;83.08
17060;BME280;8646;49.716;9.266;2023-03-04T01:55:13;101029.84;;;1.45;82.91
17060;BME280;8646;49.716;9.266;2023-03-04T01:58:17;101033.34;;;1.41;83.29
17060;BME280;8646;49.716;9.266;2023-03-04T02:01:19;101028.94;;;1.46;82.89
17060;BME280;8646;49.716;9.266;2023-03-04T02:04:25;101023.59;;;1.43;82.92
17060;BME280;8646;49.716;9.266;2023-03-04T02:07:28;101020.03;;;1.44;82.72
17060;BME280;8646;49.716;9.266;2023-03-04T02:10:32;101018.22;;;1.40;82.78
17060;BME280;8646;49.716;9.266;2023-03-04T02:13:35;101006.66;;;1.36;83.04
17060;BME280;8646;49.716;9.266;2023-03-04T02:16:38;101005.78;;;1.37;83.01
17060;BME280;8646;49.716;9.266;2023-03-04T02:19:48;101005.78;;;1.40;82.96
17060;BME280;8646;49.716;9.266;2023-03-04T02:23:00;101011.16;;;1.45;83.01
17060;BME280;8646;49.716;9.266;2023-03-04T02:26:15;100999.59;;;1.46;82.92
17060;BME280;8646;49.716;9.266;2023-03-04T02:29:19;100998.75;;;1.56;82.67
17060;BME280;8646;49.716;9.266;2023-03-04T02:32:22;100997.91;;;1.62;82.53
17060;BME280;8646;49.716;9.266;2023-03-04T02:35:24;100990.78;;;1.62;82.65
17060;BME280;8646;49.716;9.266;2023-03-04T02:38:27;101000.59;;;1.69;82.57
17060;BME280;8646;49.716;9.266;2023-03-04T02:41:32;100993.47;;;1.71;82.17
17060;BME280;8646;49.716;9.266;2023-03-04T02:44:36;100990.84;;;1.77;82.27
17060;BME280;8646;49.716;9.266;2023-03-04T02:47:39;101000.63;;;1.81;81.94
17060;BME280;8646;49.716;9.266;2023-03-04T02:50:44;101002.44;;;1.84;82.09
17060;BME280;8646;49.716;9.266;2023-03-04T02:53:48;100994.41;;;1.87;82.01
17060;BME280;8646;49.716;9.266;2023-03-04T02:56:54;100993.53;;;1.86;81.91
17060;BME280;8646;49.716;9.266;2023-03-04T02:59:56;100990.00;;;1.97;81.64
17060;BME280;8646;49.716;9.266;2023-03-04T03:02:59;100988.25;;;2.02;81.53
17060;BME280;8646;49.716;9.266;2023-03-04T03:06:03;100985.56;;;2.06;81.39
17060;BME280;8646;49.716;9.266;2023-03-04T03:09:06;100988.25;;;2.09;81.43
17060;BME280;8646;49.716;9.266;2023-03-04T03:12:10;100991.81;;;2.10;81.60
17060;BME280;8646;49.716;9.266;2023-03-04T03:15:13;100984.72;;;2.10;81.38
17060;BME280;8646;49.716;9.266;2023-03-04T03:18:16;100977.59;;;2.11;81.26
17060;BME280;8646;49.716;9.266;2023-03-04T03:21:19;100982.03;;;2.10;81.01
17060;BME280;8646;49.716;9.266;2023-03-04T03:24:21;100985.56;;;2.06;80.99
17060;BME280;8646;49.716;9.266;2023-03-04T03:27:25;100979.31;;;2.04;80.98
17060;BME280;8646;49.716;9.266;2023-03-04T03:30:28;100983.78;;;2.07;81.09
17060;BME280;8646;49.716;9.266;2023-03-04T03:33:31;100979.38;;;2.10;80.96
17060;BME280;8646;49.716;9.266;2023-03-04T03:36:35;100981.13;;;2.11;80.90
17060;BME280;8646;49.716;9.266;2023-03-04T03:39:37;100973.09;;;2.11;81.03
17060;BME280;8646;49.716;9.266;2023-03-04T03:42:42;100984.69;;;2.15;80.91
17060;BME280;8646;49.716;9.266;2023-03-04T03:45:44;100983.81;;;2.14;80.87
17060;BME280;8646;49.716;9.266;2023-03-04T03:48:47;100966.00;;;2.12;80.97
17060;BME280;8646;49.716;9.266;2023-03-04T03:51:50;100977.56;;;2.14;80.73
17060;BME280;8646;49.716;9.266;2023-03-04T03:54:53;100969.56;;;2.15;80.97
17060;BME280;8646;49.716;9.266;2023-03-04T03:57:57;100976.69;;;2.16;80.79
17060;BME280;8646;49.716;9.266;2023-03-04T04:00:59;100978.50;;;2.19;80.87
17060;BME280;8646;49.716;9.266;2023-03-04T04:04:02;100978.50;;;2.19;80.73
17060;BME280;8646;49.716;9.266;2023-03-04T04:07:05;100974.91;;;2.23;80.84
17060;BME280;8646;49.716;9.266;2023-03-04T04:10:09;100970.47;;;2.23;80.51
17060;BME280;8646;49.716;9.266;2023-03-04T04:13:13;100972.25;;;2.23;80.77
17060;BME280;8646;49.716;9.266;2023-03-04T04:16:16;100974.91;;;2.23;80.96
17060;BME280;8646;49.716;9.266;2023-03-04T04:19:20;100971.38;;;2.27;80.74
17060;BME280;8646;49.716;9.266;2023-03-04T04:22:22;100974.06;;;2.27;80.80
17060;BME280;8646;49.716;9.266;2023-03-04T04:25:25;100973.13;;;2.28;80.67
17060;BME280;8646;49.716;9.266;2023-03-04T04:28:29;100970.47;;;2.25;80.99
17060;BME280;8646;49.716;9.266;2023-03-04T04:31:33;100977.63;;;2.26;80.81
17060;BME280;8646;49.716;9.266;2023-03-04T04:34:35;100968.72;;;2.25;81.02
17060;BME280;8646;49.716;9.266;2023-03-04T04:37:38;100971.38;;;2.27;81.01
17060;BME280;8646;49.716;9.266;2023-03-04T04:40:41;100967.81;;;2.25;80.82
17060;BME280;8646;49.716;9.266;2023-03-04T04:43:45;100973.13;;;2.22;80.89
17060;BME280;8646;49.716;9.266;2023-03-04T04:46:48;100967.81;;;2.26;80.66
17060;BME280;8646;49.716;9.266;2023-03-04T04:49:51;100961.59;;;2.26;80.69
17060;BME280;8646;49.716;9.266;2023-03-04T04:52:54;100958.91;;;2.24;80.81
17060;BME280;8646;49.716;9.266;2023-03-04T04:55:57;100966.03;;;2.24;80.81
17060;BME280;8646;49.716;9.266;2023-03-04T04:59:04;100953.56;;;2.17;80.72
17060;BME280;8646;49.716;9.266;2023-03-04T05:02:08;100962.47;;;2.22;81.07
17060;BME280;8646;49.716;9.266;2023-03-04T05:05:11;100957.13;;;2.19;80.82
17060;BME280;8646;49.716;9.266;2023-03-04T05:08:13;100957.13;;;2.16;80.69
17060;BME280;8646;49.716;9.266;2023-03-04T05:11:16;100961.56;;;2.17;80.98
17060;BME280;8646;49.716;9.266;2023-03-04T05:14:21;100958.00;;;2.18;80.71
17060;BME280;8646;49.716;9.266;2023-03-04T05:17:24;100963.34;;;2.15;80.83
17060;BME280;8646;49.716;9.266;2023-03-04T05:20:27;100954.44;;;2.16;81.03
17060;BME280;8646;49.716;9.266;2023-03-04T05:23:31;100948.22;;;2.17;80.85
17060;BME280;8646;49.716;9.266;2023-03-04T05:26:35;100957.13;;;2.19;80.81
17060;BME280;8646;49.716;9.266;2023-03-04T05:29:39;100951.78;;;2.17;80.71
17060;BME280;8646;49.716;9.266;2023-03-04T05:32:43;100947.31;;;2.19;80.89
17060;BME280;8646;49.716;9.266;2023-03-04T05:35:46;100954.47;;;2.19;80.97
17060;BME280;8646;49.716;9.266;2023-03-04T05:38:49;100956.22;;;2.17;80.76
17060;BME280;8646;49.716;9.266;2023-03-04T05:41:52;100952.69;;;2.18;80.75
17060;BME280;8646;49.716;9.266;2023-03-04T05:44:56;100948.22;;;2.21;80.90
17060;BME280;8646;49.716;9.266;2023-03-04T05:47:59;100897.47;;;1.94;80.90
17060;BME280;8646;49.716;9.266;2023-03-04T05:51:03;100952.69;;;2.27;80.84
17060;BME280;8646;49.716;9.266;2023-03-04T05:54:06;100957.13;;;2.28;81.07
17060;BME280;8646;49.716;9.266;2023-03-04T05:57:08;100963.34;;;2.30;80.66
17060;BME280;8646;49.716;9.266;2023-03-04T06:00:14;100962.47;;;2.31;80.83
17060;BME280;8646;49.716;9.266;2023-03-04T06:03:20;100961.56;;;2.29;80.81
17060;BME280;8646;49.716;9.266;2023-03-04T06:06:23;100962.47;;;2.31;80.40
17060;BME280;8646;49.716;9.266;2023-03-04T06:09:26;100965.13;;;2.29;80.65
17060;BME280;8646;49.716;9.266;2023-03-04T06:12:29;100954.47;;;2.19;80.93
17060;BME280;8646;49.716;9.266;2023-03-04T06:15:33;100971.38;;;2.32;80.78
17060;BME280;8646;49.716;9.266;2023-03-04T06:18:36;100975.81;;;2.31;80.79
17060;BME280;8646;49.716;9.266;2023-03-04T06:21:38;100974.03;;;2.30;81.08
17060;BME280;8646;49.716;9.266;2023-03-04T06:24:41;100983.81;;;2.36;80.77
17060;BME280;8646;49.716;9.266;2023-03-04T06:27:44;100983.84;;;2.37;80.92
17060;BME280;8646;49.716;9.266;2023-03-04T06:30:50;100990.06;;;2.36;81.03
17060;BME280;8646;49.716;9.266;2023-03-04T06:33:53;100984.72;;;2.39;80.84
17060;BME280;8646;49.716;9.266;2023-03-04T06:36:56;100995.44;;;2.42;80.94
17060;BME280;8646;49.716;9.266;2023-03-04T06:39:59;100993.63;;;2.38;80.83
17060;BME280;8646;49.716;9.266;2023-03-04T06:43:02;101001.66;;;2.41;80.88
17060;BME280;8646;49.716;9.266;2023-03-04T06:46:07;101007.88;;;2.46;80.99
17060;BME280;8646;49.716;9.266;2023-03-04T06:49:10;101004.31;;;2.52;80.66
17060;BME280;8646;49.716;9.266;2023-03-04T06:52:13;101007.00;;;2.53;80.90
17060;BME280;8646;49.716;9.266;2023-03-04T06:55:15;101000.78;;;2.54;80.82
17060;BME280;8646;49.716;9.266;2023-03-04T06:58:18;101014.13;;;2.60;80.87
17060;BME280;8646;49.716;9.266;2023-03-04T07:01:24;101002.56;;;2.64;80.71
17060;BME280;8646;49.716;9.266;2023-03-04T07:04:27;101015.91;;;2.63;80.90
17060;BME280;8646;49.716;9.266;2023-03-04T07:07:29;101020.38;;;2.65;80.70
17060;BME280;8646;49.716;9.266;2023-03-04T07:10:32;101031.09;;;2.75;80.45
17060;BME280;8646;49.716;9.266;2023-03-04T07:13:35;101023.94;;;2.74;80.83
17060;BME280;8646;49.716;9.266;2023-03-04T07:16:40;101020.38;;;2.78;80.52
17060;BME280;8646;49.716;9.266;2023-03-04T07:19:43;101019.50;;;2.80;80.92
17060;BME280;8646;49.716;9.266;2023-03-04T07:22:46;101025.72;;;2.87;80.68
17060;BME280;8646;49.716;9.266;2023-03-04T07:25:49;101028.41;;;2.88;80.38
17060;BME280;8646;49.716;9.266;2023-03-04T07:28:52;101023.97;;;2.92;80.49
17060;BME280;8646;49.716;9.266;2023-03-04T07:31:59;101018.59;;;2.98;80.43
17060;BME280;8646;49.716;9.266;2023-03-04T07:35:02;101030.16;;;3.03;80.41
17060;BME280;8646;49.716;9.266;2023-03-04T07:38:05;101023.06;;;3.06;80.09
17060;BME280;8646;49.716;9.266;2023-03-04T07:41:07;101025.72;;;3.08;80.08
17060;BME280;8646;49.716;9.266;2023-03-04T07:44:11;101033.75;;;3.16;79.93
17060;BME280;8646;49.716;9.266;2023-03-04T07:47:15;101034.59;;;3.19;79.89
17060;BME280;8646;49.716;9.266;2023-03-04T07:50:18;101034.63;;;3.24;80.14
17060;BME280;8646;49.716;9.266;2023-03-04T07:53:21;101035.50;;;3.30;79.78
17060;BME280;8646;49.716;9.266;2023-03-04T07:56:25;101039.03;;;3.35;79.73
17060;BME280;8646;49.716;9.266;2023-03-04T07:59:28;101038.16;;;3.39;79.42
17060;BME280;8646;49.716;9.266;2023-03-04T08:02:32;101033.66;;;3.44;79.06
17060;BME280;8646;49.716;9.266;2023-03-04T08:05:38;101032.78;;;3.42;79.41
17060;BME280;8646;49.716;9.266;2023-03-04T08:08:40;101037.22;;;3.50;79.49
17060;BME280;8646;49.716;9.266;2023-03-04T08:11:44;101040.78;;;3.55;79.41
17060;BME280;8646;49.716;9.266;2023-03-04T08:14:47;101030.91;;;3.66;79.11
17060;BME280;8646;49.716;9.266;2023-03-04T08:17:51;101028.25;;;3.69;79.05
17060;BME280;8646;49.716;9.266;2023-03-04T08:20:54;101030.00;;;3.74;79.06
17060;BME280;8646;49.716;9.266;2023-03-04T08:23:58;101027.31;;;3.79;78.99
17060;BME280;8646;49.716;9.266;2023-03-04T08:27:03;101034.41;;;3.89;78.87
17060;BME280;8646;49.716;9.266;2023-03-04T08:30:07;101032.53;;;4.08;79.48
17060;BME280;8646;49.716;9.266;2023-03-04T08:33:11;101030.63;;;4.30;80.80
17060;BME280;8646;49.716;9.266;2023-03-04T08:36:14;101029.66;;;4.44;81.31
17060;BME280;8646;49.716;9.266;2023-03-04T08:39:17;101035.78;;;4.57;81.44
17060;BME280;8646;49.716;9.266;2023-03-04T08:42:21;101043.78;;;4.69;81.61
17060;BME280;8646;49.716;9.266;2023-03-04T08:45:24;101030.31;;;4.75;81.14
17060;BME280;8646;49.716;9.266;2023-03-04T08:48:28;101037.41;;;4.79;81.38
17060;BME280;8646;49.716;9.266;2023-03-04T08:51:31;101031.13;;;4.83;80.91
17060;BME280;8646;49.716;9.266;2023-03-04T08:54:36;101030.19;;;4.87;80.76
17060;BME280;8646;49.716;9.266;2023-03-04T08:57:39;101044.41;;;4.98;81.37
17060;BME280;8646;49.716;9.266;2023-03-04T09:00:44;101041.72;;;5.02;80.96
17060;BME280;8646;49.716;9.266;2023-03-04T09:03:50;101038.97;;;5.11;81.06
17060;BME280;8646;49.716;9.266;2023-03-04T09:06:53;101042.47;;;5.19;81.21
17060;BME280;8646;49.716;9.266;2023-03-04T09:09:55;101046.03;;;5.18;80.00
17060;BME280;8646;49.716;9.266;2023-03-04T09:12:58;101040.72;;;5.12;79.91
17060;BME280;8646;49.716;9.266;2023-03-04T09:16:02;101041.59;;;5.14;79.56
17060;BME280;8646;49.716;9.266;2023-03-04T09:19:06;101046.03;;;5.18;79.11
17060;BME280;8646;49.716;9.266;2023-03-04T09:22:09;101039.72;;;5.22;78.61
17060;BME280;8646;49.716;9.266;2023-03-04T09:25:13;101037.91;;;5.25;78.08
17060;BME280;8646;49.716;9.266;2023-03-04T09:28:17;101015.56;;;5.25;77.67
17060;BME280;8646;49.716;9.266;2023-03-04T09:31:21;101028.84;;;5.37;77.35
17060;BME280;8646;49.716;9.266;2023-03-04T09:34:25;101022.50;;;5.44;76.71
17060;BME280;8646;49.716;9.266;2023-03-04T09:37:28;101025.97;;;5.52;76.59
17060;BME280;8646;49.716;9.266;2023-03-04T09:40:34;101026.84;;;5.57;76.02
17060;BME280;8646;49.716;9.266;2023-03-04T09:43:39;101019.66;;;5.59;75.89
17060;BME280;8646;49.716;9.266;2023-03-04T09:46:46;101021.31;;;5.68;75.43
17060;BME280;8646;49.716;9.266;2023-03-04T09:49:55;101019.44;;;5.76;75.09
17060;BME280;8646;49.716;9.266;2023-03-04T09:53:05;101012.16;;;5.84;75.02
17060;BME280;8646;49.716;9.266;2023-03-04T09:56:11;101021.91;;;5.99;74.65
17060;BME280;8646;49.716;9.266;2023-03-04T09:59:23;101010.13;;;6.07;74.21
17060;BME280;8646;49.716;9.266;2023-03-04T10:02:31;101009.06;;;6.18;73.50
17060;BME280;8646;49.716;9.266;2023-03-04T10:05:48;101001.84;;;6.24;73.03
17060;BME280;8646;49.716;9.266;2023-03-04T10:08:57;101004.38;;;6.33;72.48
17060;BME280;8646;49.716;9.266;2023-03-04T10:12:03;101004.25;;;6.42;71.79
17060;BME280;8646;49.716;9.266;2023-03-04T10:15:20;100997.81;;;6.53;71.57
17060;BME280;8646;49.716;9.266;2023-03-04T10:18:28;100993.19;;;6.62;70.57
17060;BME280;8646;49.716;9.266;2023-03-04T10:21:38;100999.25;;;6.75;70.09
17060;BME280;8646;49.716;9.266;2023-03-04T10:24:43;100992.75;;;6.88;69.86
17060;BME280;8646;49.716;9.266;2023-03-04T10:27:50;100988.06;;;6.99;69.56
17060;BME280;8646;49.716;9.266;2023-03-04T10:30:57;100989.84;;;7.00;68.81
17060;BME280;8646;49.716;9.266;2023-03-04T10:34:02;100988.78;;;7.10;68.63
17060;BME280;8646;49.716;9.266;2023-03-04T10:37:07;100982.31;;;7.20;67.81
17060;BME280;8646;49.716;9.266;2023-03-04T10:40:18;100969.75;;;7.19;67.50
17060;BME280;8646;49.716;9.266;2023-03-04T10:43:21;100982.91;;;7.36;66.81
17060;BME280;8646;49.716;9.266;2023-03-04T10:46:23;100990.84;;;7.44;66.38
17060;BME280;8646;49.716;9.266;2023-03-04T10:49:28;100985.31;;;7.50;65.55
17060;BME280;8646;49.716;9.266;2023-03-04T10:52:34;100975.41;;;7.52;65.03
17060;BME280;8646;49.716;9.266;2023-03-04T10:55:44;100960.97;;;7.54;64.00
17060;BME280;8646;49.716;9.266;2023-03-04T10:58:46;100976.06;;;7.63;63.95
17060;BME280;8646;49.716;9.266;2023-03-04T11:01:50;100968.03;;;7.61;63.10
17060;BME280;8646;49.716;9.266;2023-03-04T11:05:04;100961.78;;;7.61;61.78
17060;BME280;8646;49.716;9.266;2023-03-04T11:08:16;100952.81;;;7.59;62.33
17060;BME280;8646;49.716;9.266;2023-03-04T11:11:24;100945.47;;;7.67;61.88
17060;BME280;8646;49.716;9.266;2023-03-04T11:14:36;100946.38;;;7.66;61.33
17060;BME280;8646;49.716;9.266;2023-03-04T11:17:42;100942.75;;;7.69;61.35
17060;BME280;8646;49.716;9.266;2023-03-04T11:20:48;100943.63;;;7.69;60.67
17060;BME280;8646;49.716;9.266;2023-03-04T11:23:56;100928.41;;;7.68;60.90
17060;BME280;8646;49.716;9.266;2023-03-04T11:27:04;100931.00;;;7.71;60.19
17060;BME280;8646;49.716;9.266;2023-03-04T11:30:26;100929.34;;;7.64;60.26
17060;BME280;8646;49.716;9.266;2023-03-04T11:33:35;100928.59;;;7.59;59.86
17060;BME280;8646;49.716;9.266;2023-03-04T11:36:50;100904.97;;;7.28;59.92
17060;BME280;8646;49.716;9.266;2023-03-04T11:39:58;100914.63;;;7.39;57.52
17060;BME280;8646;49.716;9.266;2023-03-04T11:43:06;100913.88;;;7.31;59.27
17060;BME280;8646;49.716;9.266;2023-03-04T11:46:36;100921.97;;;7.31;59.21
17060;BME280;8646;49.716;9.266;2023-03-04T11:49:54;100916.63;;;7.29;59.69
17060;BME280;8646;49.716;9.266;2023-03-04T11:56:38;100897.06;;;7.21;58.88
17060;BME280;8646;49.716;9.266;2023-03-04T11:59:58;100905.16;;;7.19;58.42
17060;BME280;8646;49.716;9.266;2023-03-04T12:03:25;100905.06;;;7.22;59.30
17060;BME280;8646;49.716;9.266;2023-03-04T12:06:34;100892.59;;;7.20;58.93
17060;BME280;8646;49.716;9.266;2023-03-04T12:09:48;100902.34;;;7.25;59.24
17060;BME280;8646;49.716;9.266;2023-03-04T12:13:32;100899.66;;;7.25;57.42
17060;BME280;8646;49.716;9.266;2023-03-04T12:16:57;100890.06;;;7.12;58.77
17060;BME280;8646;49.716;9.266;2023-03-04T12:24:22;100889.94;;;7.18;58.84
17060;BME280;8646;49.716;9.266;2023-03-04T12:27:35;100895.34;;;7.15;58.85
17060;BME280;8646;49.716;9.266;2023-03-04T12:30:51;100890.06;;;7.11;59.09
17060;BME280;8646;49.716;9.266;2023-03-04T12:37:33;100891.13;;;7.02;59.56
17060;BME280;8646;49.716;9.266;2023-03-04T12:40:46;100882.22;;;6.99;58.64
17060;BME280;8646;49.716;9.266;2023-03-04T12:43:56;100882.19;;;7.00;57.95
17060;BME280;8646;49.716;9.266;2023-03-04T12:47:12;100882.50;;;6.85;58.66
17060;BME280;8646;49.716;9.266;2023-03-04T12:50:30;100878.94;;;6.83;59.16
17060;BME280;8646;49.716;9.266;2023-03-04T12:53:43;100878.78;;;6.90;59.39
17060;BME280;8646;49.716;9.266;2023-03-04T12:56:50;100876.06;;;6.92;59.70
17060;BME280;8646;49.716;9.266;2023-03-04T12:59:59;100860.84;;;6.91;59.43
17060;BME280;8646;49.716;9.266;2023-03-04T13:03:13;100861.59;;;6.99;59.20
17060;BME280;8646;49.716;9.266;2023-03-04T13:06:29;100864.25;;;7.01;59.51
17060;BME280;8646;49.716;9.266;2023-03-04T13:09:42;100859.78;;;7.00;59.91
17060;BME280;8646;49.716;9.266;2023-03-04T13:12:49;100856.94;;;7.07;59.65
17060;BME280;8646;49.716;9.266;2023-03-04T13:16:01;100853.19;;;7.14;59.27
17060;BME280;8646;49.716;9.266;2023-03-04T13:22:45;100836.81;;;7.26;59.42
17060;BME280;8646;49.716;9.266;2023-03-04T13:25:49;100834.72;;;7.39;57.73
17060;BME280;8646;49.716;9.266;2023-03-04T13:29:31;100834.97;;;7.28;58.33
17060;BME280;8646;49.716;9.266;2023-03-04T13:32:37;100826.91;;;7.28;57.05
17060;BME280;8646;49.716;9.266;2023-03-04T13:35:46;100824.28;;;7.25;57.96
17060;BME280;8646;49.716;9.266;2023-03-04T13:38:58;100817.06;;;7.27;57.31
17060;BME280;8646;49.716;9.266;2023-03-04T13:42:04;100813.50;;;7.25;58.01
17060;BME280;8646;49.716;9.266;2023-03-04T13:45:32;100821.34;;;7.38;58.21
17060;BME280;8646;49.716;9.266;2023-03-04T13:48:36;100811.19;;;7.49;58.45
17060;BME280;8646;49.716;9.266;2023-03-04T13:51:40;100805.34;;;7.69;56.52
17060;BME280;8646;49.716;9.266;2023-03-04T13:54:47;100794.66;;;7.64;56.46
17060;BME280;8646;49.716;9.266;2023-03-04T13:57:50;100780.25;;;7.66;56.35
17060;BME280;8646;49.716;9.266;2023-03-04T14:00:54;100782.53;;;7.83;57.03
17060;BME280;8646;49.716;9.266;2023-03-04T14:03:57;100784.88;;;7.98;57.26
17060;BME280;8646;49.716;9.266;2023-03-04T14:07:03;100765.75;;;8.09;56.57
17060;BME280;8646;49.716;9.266;2023-03-04T14:10:20;100772.97;;;8.07;56.53
17060;BME280;8646;49.716;9.266;2023-03-04T14:13:23;100764.69;;;8.15;56.76
17060;BME280;8646;49.716;9.266;2023-03-04T14:16:31;100770.00;;;8.18;56.46
17060;BME280;8646;49.716;9.266;2023-03-04T14:19:42;100764.44;;;8.24;56.93
17060;BME280;8646;49.716;9.266;2023-03-04T14:22:45;100765.34;;;8.24;56.67
17060;BME280;8646;49.716;9.266;2023-03-04T14:25:49;100758.09;;;8.26;56.54
17060;BME280;8646;49.716;9.266;2023-03-04T14:28:52;100755.31;;;8.31;56.49
17060;BME280;8646;49.716;9.266;2023-03-04T14:31:58;100744.66;;;8.25;56.11
17060;BME280;8646;49.716;9.266;2023-03-04T14:35:05;100750.03;;;8.25;55.48
17060;BME280;8646;49.716;9.266;2023-03-04T14:38:15;100736.84;;;8.14;55.99
17060;BME280;8646;49.716;9.266;2023-03-04T14:41:27;100735.94;;;8.14;55.96
17060;BME280;8646;49.716;9.266;2023-03-04T14:44:34;100738.53;;;8.18;55.44
17060;BME280;8646;49.716;9.266;2023-03-04T14:47:39;100735.72;;;8.23;56.07
17060;BME280;8646;49.716;9.266;2023-03-04T14:50:49;100735.78;;;8.20;55.81
17060;BME280;8646;49.716;9.266;2023-03-04T14:53:53;100735.06;;;8.13;55.88
17060;BME280;8646;49.716;9.266;2023-03-04T14:57:19;100732.25;;;8.18;54.59
17060;BME280;8646;49.716;9.266;2023-03-04T15:00:27;100727.34;;;7.99;54.89
17060;BME280;8646;49.716;9.266;2023-03-04T15:03:31;100718.44;;;7.96;54.64
17060;BME280;8646;49.716;9.266;2023-03-04T15:06:36;100711.41;;;7.90;54.27
17060;BME280;8646;49.716;9.266;2023-03-04T15:09:40;100708.34;;;7.70;55.27
17060;BME280;8646;49.716;9.266;2023-03-04T15:12:50;100716.25;;;7.76;56.01
17060;BME280;8646;49.716;9.266;2023-03-04T15:15:59;100720.75;;;7.77;56.00
17060;BME280;8646;49.716;9.266;2023-03-04T15:19:04;100719.81;;;7.78;55.91
17060;BME280;8646;49.716;9.266;2023-03-04T15:22:07;100725.31;;;7.74;55.92
17060;BME280;8646;49.716;9.266;2023-03-04T15:25:11;100716.34;;;7.73;56.20
17060;BME280;8646;49.716;9.266;2023-03-04T15:28:17;100718.16;;;7.71;56.56
17060;BME280;8646;49.716;9.266;2023-03-04T15:31:22;100718.31;;;7.65;56.69
17060;BME280;8646;49.716;9.266;2023-03-04T15:34:26;100719.34;;;7.61;56.93
17060;BME280;8646;49.716;9.266;2023-03-04T15:37:29;100714.88;;;7.60;56.97
17060;BME280;8646;49.716;9.266;2023-03-04T15:40:33;100715.09;;;7.51;56.76
17060;BME280;8646;49.716;9.266;2023-03-04T15:43:40;100715.16;;;7.48;57.14
17060;BME280;8646;49.716;9.266;2023-03-04T15:46:43;100719.63;;;7.49;57.65
17060;BME280;8646;49.716;9.266;2023-03-04T15:49:45;100716.00;;;7.50;57.71
17060;BME280;8646;49.716;9.266;2023-03-04T15:52:49;100712.41;;;7.51;57.85
17060;BME280;8646;49.716;9.266;2023-03-04T15:55:52;100718.50;;;7.57;56.05
17060;BME280;8646;49.716;9.266;2023-03-04T15:58:58;100722.44;;;7.44;56.64
17060;BME280;8646;49.716;9.266;2023-03-04T16:02:07;100720.00;;;7.34;57.20
17060;BME280;8646;49.716;9.266;2023-03-04T16:05:13;100717.31;;;7.32;57.31
17060;BME280;8646;49.716;9.266;2023-03-04T16:08:19;100716.34;;;7.36;56.71
17060;BME280;8646;49.716;9.266;2023-03-04T16:11:24;100722.16;;;7.16;57.59
17060;BME280;8646;49.716;9.266;2023-03-04T16:14:29;100721.44;;;7.10;58.21
17060;BME280;8646;49.716;9.266;2023-03-04T16:17:33;100717.00;;;7.07;58.45
17060;BME280;8646;49.716;9.266;2023-03-04T16:20:36;100726.06;;;7.03;58.82
17060;BME280;8646;49.716;9.266;2023-03-04T16:23:41;100724.44;;;6.96;59.26
17060;BME280;8646;49.716;9.266;2023-03-04T16:26:45;100719.06;;;6.96;59.31
17060;BME280;8646;49.716;9.266;2023-03-04T16:29:49;100721.78;;;6.93;59.34
17060;BME280;8646;49.716;9.266;2023-03-04T16:32:54;100715.53;;;6.93;59.79
17060;BME280;8646;49.716;9.266;2023-03-04T16:35:59;100709.22;;;6.94;59.52
17060;BME280;8646;49.716;9.266;2023-03-04T16:39:07;100720.88;;;6.94;59.76
17060;BME280;8646;49.716;9.266;2023-03-04T16:42:16;100701.28;;;6.89;59.54
17060;BME280;8646;49.716;9.266;2023-03-04T16:45:23;100713.75;;;6.92;59.80
17060;BME280;8646;49.716;9.266;2023-03-04T16:48:26;100714.75;;;6.87;60.12
17060;BME280;8646;49.716;9.266;2023-03-04T16:51:33;100708.53;;;6.84;59.96